Haddam, Connecticut
Current Conditions -  °F | °C
As of 7:55 AM on Thursday 23 Oct 2014 (Local Time) from KSNC Reporting Station
Overcast Overcast  
Wind Chill: 52°   Ceiling: 1600
Heat Index: 52°   Visibility: 10mi
Dew Point: 46°   Wind: 14mph
Humidity: 82%   Direction: 350°N
Pressure: 29.62"   Gusts: 18mph
Location:  41.48°N, 72.51°W
Report Text: KSNC 231155Z AUTO 35012G16KT 10SM OVC016 11/08 A2962 RMK AO2
Loading
Personal Weather Stations






























Interactive Weather Map
Tropical Storm Tracking
New forecast layout! Learn more

10-Day Weather Forecast

Advertisements
Track Severe Weather on mobile